createdAt,value
2019-02-21T00:00:49.897Z,14.9
2019-02-21T00:02:49.743Z,14.9
2019-02-21T00:04:50.176Z,14.1
2019-02-21T00:06:50.125Z,14.8
2019-02-21T00:08:50.018Z,15.3
2019-02-21T00:10:49.844Z,15.1
2019-02-21T00:12:49.716Z,15.5
2019-02-21T00:14:49.698Z,15.5
2019-02-21T00:16:49.706Z,15.1
2019-02-21T00:18:50.525Z,16.0
2019-02-21T00:20:50.387Z,16.9
2019-02-21T00:22:50.228Z,17.9
2019-02-21T00:24:50.182Z,17.9
2019-02-21T00:26:50.193Z,16.9
2019-02-21T00:28:50.032Z,17.7
2019-02-21T00:30:49.886Z,17.4
2019-02-21T00:32:49.905Z,18.3
2019-02-21T00:34:50.225Z,18.3
2019-02-21T00:36:50.162Z,18.9
2019-02-21T00:38:50.115Z,18.3
2019-02-21T00:40:49.923Z,18.6
2019-02-21T00:42:49.822Z,18.1
2019-02-21T00:44:49.660Z,18.1
2019-02-21T00:46:49.757Z,18.4
2019-02-21T00:48:49.595Z,18.9
2019-02-21T00:50:50.488Z,18.9
2019-02-21T00:52:50.252Z,18.2
2019-02-21T00:54:50.220Z,18.1
2019-02-21T00:56:50.156Z,18.0
2019-02-21T00:58:50.060Z,17.9
2019-02-21T01:00:49.897Z,17.9
2019-02-21T01:02:49.708Z,17.6
2019-02-21T01:04:50.106Z,17.7
2019-02-21T01:06:50.035Z,16.4
2019-02-21T01:08:49.943Z,17.8
2019-02-21T01:10:49.717Z,18.0
2019-02-21T01:12:49.639Z,18.0
2019-02-21T01:14:49.543Z,17.8
2019-02-21T01:16:49.667Z,17.2
2019-02-21T01:18:50.482Z,17.1
2019-02-21T01:20:50.339Z,17.1
2019-02-21T01:22:50.169Z,16.8
2019-02-21T01:24:50.057Z,16.8
2019-02-21T01:26:50.182Z,17.1
2019-02-21T01:28:50.018Z,17.3
2019-02-21T01:30:57.332Z,17.4
2019-02-21T01:32:50.293Z,17.4
2019-02-21T01:34:49.589Z,17.2
2019-02-21T01:36:49.565Z,17.2
2019-02-21T01:38:50.456Z,18.0
2019-02-21T01:40:50.292Z,18.0
2019-02-21T01:42:50.259Z,16.3
2019-02-21T01:44:50.139Z,17.8
2019-02-21T01:46:50.099Z,17.8
2019-02-21T01:48:49.958Z,18.5
2019-02-21T01:50:49.771Z,19.0
2019-02-21T01:52:49.639Z,19.0
2019-02-21T01:54:49.603Z,19.6
2019-02-21T01:56:49.563Z,18.7
2019-02-21T01:58:50.495Z,18.2
2019-02-21T02:00:50.293Z,18.2
2019-02-21T02:02:50.196Z,19.3
2019-02-21T02:04:50.396Z,19.3
2019-02-21T02:06:50.350Z,19.0
2019-02-21T02:08:50.177Z,19.4
2019-02-21T02:10:50.084Z,19.4
2019-02-21T02:12:50.080Z,19.4
2019-02-21T02:14:49.940Z,18.4
2019-02-21T02:16:49.991Z,18.2
2019-02-21T02:18:49.921Z,18.5
2019-02-21T02:20:49.743Z,18.5
2019-02-21T02:22:49.631Z,18.2
2019-02-21T02:24:50.516Z,18.0
2019-02-21T02:26:49.553Z,18.0
2019-02-21T02:28:50.490Z,19.7
2019-02-21T02:30:49.571Z,19.7
2019-02-21T02:32:50.476Z,19.3
2019-02-21T02:34:49.923Z,18.9
2019-02-21T02:36:49.926Z,19.7
2019-02-21T02:38:49.739Z,19.7
2019-02-21T02:40:49.573Z,19.1
2019-02-21T02:42:50.506Z,18.8
2019-02-21T02:44:50.472Z,19.1
2019-02-21T02:46:49.524Z,19.4
2019-02-21T02:48:50.382Z,19.4
2019-02-21T02:50:50.294Z,19.4
2019-02-21T02:52:50.091Z,19.1
2019-02-21T02:54:49.870Z,19.5
2019-02-21T02:56:49.878Z,19.5
2019-02-21T02:58:49.797Z,19.1
2019-02-21T03:00:49.655Z,19.9
2019-02-21T03:02:49.653Z,20.2
2019-02-21T03:04:49.981Z,19.4
2019-02-21T03:06:50.003Z,20.4
2019-02-21T03:08:50.037Z,20.4
2019-02-21T03:10:49.925Z,19.3
2019-02-21T03:12:49.852Z,21.3
2019-02-21T03:14:49.678Z,21.3
2019-02-21T03:16:49.572Z,19.9
2019-02-21T03:18:50.449Z,19.9
2019-02-21T03:20:50.397Z,21.6
2019-02-21T03:22:50.352Z,21.5
2019-02-21T03:24:50.210Z,20.0
2019-02-21T03:26:50.164Z,20.7
2019-02-21T03:28:50.053Z,20.7
2019-02-21T03:30:49.962Z,20.2
2019-02-21T03:32:49.969Z,21.4
2019-02-21T03:34:50.116Z,21.2
2019-02-21T03:36:50.198Z,22.2
2019-02-21T03:38:50.094Z,22.2
2019-02-21T03:40:49.954Z,21.6
2019-02-21T03:42:49.845Z,21.8
2019-02-21T03:44:49.705Z,21.8
2019-02-21T03:46:49.742Z,21.8
2019-02-21T03:48:49.742Z,20.5
2019-02-21T03:50:49.596Z,21.7
2019-02-21T03:52:49.543Z,22.4
2019-02-21T03:54:50.500Z,22.7
2019-02-21T03:56:50.488Z,22.7
2019-02-21T03:58:50.368Z,22.2
2019-02-21T04:00:50.262Z,21.7
2019-02-21T04:02:50.080Z,21.0
2019-02-21T04:04:50.356Z,21.0
2019-02-21T04:06:50.481Z,21.0
2019-02-21T04:08:50.413Z,20.9
2019-02-21T04:10:50.293Z,21.4
2019-02-21T04:12:50.138Z,21.4
2019-02-21T04:14:50.044Z,22.3
2019-02-21T04:16:50.139Z,22.3
2019-02-21T04:18:49.925Z,23.0
2019-02-21T04:20:49.780Z,22.0
2019-02-21T04:22:49.698Z,22.9
2019-02-21T04:24:49.664Z,22.9
2019-02-21T04:26:49.770Z,23.6
2019-02-21T04:28:49.651Z,23.1
2019-02-21T04:30:50.511Z,23.3
2019-02-21T04:32:50.351Z,23.9
2019-02-21T04:34:49.736Z,23.9
2019-02-21T04:36:49.819Z,24.1
2019-02-21T04:38:49.664Z,24.1
2019-02-21T04:40:49.581Z,24.4
2019-02-21T04:42:49.547Z,23.7
2019-02-21T04:44:50.496Z,23.7
2019-02-21T04:46:50.472Z,23.7
2019-02-21T04:48:50.452Z,23.1
2019-02-21T04:50:50.353Z,23.1
2019-02-21T04:52:50.281Z,22.6
2019-02-21T04:54:50.156Z,22.6
2019-02-21T04:56:50.042Z,22.3
2019-02-21T04:58:49.967Z,23.4
2019-02-21T05:00:49.858Z,23.8
2019-02-21T05:02:49.669Z,24.1
2019-02-21T05:04:50.134Z,24.1
2019-02-21T05:06:50.243Z,22.8
2019-02-21T05:08:50.147Z,23.0
2019-02-21T05:10:50.060Z,23.5
2019-02-21T05:12:49.921Z,23.4
2019-02-21T05:14:49.820Z,23.4
2019-02-21T05:16:49.898Z,24.7
2019-02-21T05:18:49.839Z,23.5
2019-02-21T05:20:49.700Z,24.1
2019-02-21T05:22:49.531Z,24.1
2019-02-21T05:24:50.400Z,24.6
2019-02-21T05:26:50.136Z,25.0
2019-02-21T05:28:49.985Z,25.9
2019-02-21T05:30:49.877Z,25.2
2019-02-21T05:32:49.701Z,25.2
2019-02-21T05:34:50.328Z,28.3
2019-02-21T05:36:50.299Z,26.7
2019-02-21T05:38:50.178Z,27.0
2019-02-21T05:40:50.022Z,26.7
2019-02-21T05:42:49.798Z,26.7
2019-02-21T05:44:49.704Z,25.8
2019-02-21T05:46:49.759Z,26.5
2019-02-21T05:48:49.717Z,26.1
2019-02-21T05:50:49.588Z,26.1
2019-02-21T05:52:50.433Z,26.3
2019-02-21T05:54:50.355Z,25.9
2019-02-21T05:56:50.480Z,26.5
2019-02-21T05:58:50.273Z,29.3
2019-02-21T06:00:50.201Z,29.3
2019-02-21T06:02:53.868Z,26.3
2019-02-21T06:04:52.238Z,27.0
2019-02-21T06:06:50.238Z,26.5
2019-02-21T06:08:50.069Z,27.2
2019-02-21T06:10:49.886Z,27.2
2019-02-21T06:12:49.925Z,26.4
2019-02-21T06:14:49.855Z,26.8
2019-02-21T06:16:49.904Z,27.5
2019-02-21T06:18:49.859Z,28.5
2019-02-21T06:20:49.835Z,28.5
2019-02-21T06:22:49.662Z,27.8
2019-02-21T06:24:49.539Z,28.4
2019-02-21T06:26:49.583Z,27.8
2019-02-21T06:28:50.445Z,27.8
2019-02-21T06:30:50.306Z,27.4
2019-02-21T06:32:50.233Z,27.3
2019-02-21T06:34:52.661Z,27.5
2019-02-21T06:36:50.411Z,26.6
2019-02-21T06:38:50.313Z,26.6
2019-02-21T06:40:50.242Z,27.3
2019-02-21T06:42:50.132Z,26.1
2019-02-21T06:44:50.005Z,25.2
2019-02-21T06:46:50.222Z,24.6
2019-02-21T06:48:51.847Z,24.6
2019-02-21T06:50:49.725Z,24.3
2019-02-21T06:52:49.696Z,24.3
2019-02-21T06:54:50.501Z,27.1
2019-02-21T06:56:50.358Z,27.1
2019-02-21T06:58:50.272Z,24.9
2019-02-21T07:00:50.163Z,23.7
2019-02-21T07:02:50.132Z,22.0
2019-02-21T07:04:50.320Z,24.1
2019-02-21T07:06:50.380Z,23.6
2019-02-21T07:08:50.204Z,23.6
2019-02-21T07:10:50.086Z,23.7
2019-02-21T07:12:49.948Z,23.4
2019-02-21T07:14:49.789Z,23.4
2019-02-21T07:16:49.912Z,22.5
2019-02-21T07:18:49.788Z,22.5
2019-02-21T07:20:49.717Z,23.4
2019-02-21T07:22:49.653Z,24.1
2019-02-21T07:24:49.575Z,24.5
2019-02-21T07:26:49.688Z,24.5
2019-02-21T07:28:49.839Z,24.5
2019-02-21T07:30:49.809Z,24.2
2019-02-21T07:32:49.822Z,24.3
2019-02-21T07:34:50.209Z,24.3
2019-02-21T07:36:50.506Z,24.3
2019-02-21T07:38:49.747Z,28.0
2019-02-21T07:40:49.777Z,26.2
2019-02-21T07:42:50.037Z,27.8
2019-02-21T07:44:50.258Z,25.8
2019-02-21T07:46:49.662Z,25.8
2019-02-21T07:48:49.674Z,25.3
2019-02-21T07:50:49.847Z,24.9
2019-02-21T07:52:49.919Z,23.8
2019-02-21T07:55:02.005Z,23.8
2019-02-21T07:56:50.246Z,23.8
2019-02-21T07:58:50.222Z,23.5
2019-02-21T08:00:50.296Z,22.1
2019-02-21T08:02:50.407Z,22.1
2019-02-21T08:04:50.043Z,22.2
2019-02-21T08:06:50.319Z,22.2
2019-02-21T08:08:50.403Z,22.0
2019-02-21T08:10:50.408Z,22.4
2019-02-21T08:12:50.468Z,21.3
2019-02-21T08:14:50.517Z,21.2
2019-02-21T08:16:49.722Z,21.2
2019-02-21T08:18:49.743Z,22.5
2019-02-21T08:20:49.846Z,24.8
2019-02-21T08:22:49.932Z,24.8
2019-02-21T08:24:50.089Z,22.0
2019-02-21T08:26:50.252Z,22.0
2019-02-21T08:28:50.375Z,23.2
2019-02-21T08:30:50.435Z,23.2
2019-02-21T08:32:50.414Z,23.4
2019-02-21T08:34:49.980Z,23.4
2019-02-21T08:36:50.204Z,23.8
2019-02-21T08:38:50.239Z,23.6
2019-02-21T08:40:53.568Z,23.3
2019-02-21T08:42:49.524Z,23.1
2019-02-21T08:44:50.525Z,23.1
2019-02-21T08:46:49.763Z,21.9
2019-02-21T08:48:49.847Z,22.5
2019-02-21T08:50:50.298Z,22.2
2019-02-21T08:52:50.439Z,22.5
2019-02-21T08:55:00.666Z,22.5
2019-02-21T08:56:50.071Z,22.5
2019-02-21T08:58:50.059Z,22.1
2019-02-21T09:00:50.107Z,23.5
2019-02-21T09:02:50.145Z,23.5
2019-02-21T09:04:50.451Z,22.7
2019-02-21T09:06:49.732Z,24.9
2019-02-21T09:08:49.894Z,25.6
2019-02-21T09:10:50.111Z,25.6
2019-02-21T09:12:50.191Z,25.1
2019-02-21T09:14:50.233Z,25.1
2019-02-21T09:16:50.603Z,24.8
2019-02-21T09:18:49.660Z,24.1
2019-02-21T09:20:49.858Z,25.4
2019-02-21T09:22:49.909Z,25.4
2019-02-21T09:24:49.967Z,24.6
2019-02-21T09:26:50.103Z,23.0
2019-02-21T09:28:50.116Z,22.9
2019-02-21T09:30:50.117Z,24.3
2019-02-21T09:32:50.159Z,24.3
2019-02-21T09:34:50.525Z,23.5
2019-02-21T09:36:49.699Z,23.6
2019-02-21T09:38:49.782Z,22.6
2019-02-21T09:40:49.892Z,24.3
2019-02-21T09:42:49.935Z,24.3
2019-02-21T09:44:50.032Z,24.4
2019-02-21T09:46:50.246Z,23.8
2019-02-21T09:48:50.225Z,23.4
2019-02-21T09:50:50.296Z,23.4
2019-02-21T09:52:49.535Z,23.9
2019-02-21T09:54:49.930Z,23.8
2019-02-21T09:56:53.383Z,23.8
2019-02-21T09:58:49.716Z,23.9
2019-02-21T10:00:49.871Z,23.9
2019-02-21T10:02:50.072Z,24.6
2019-02-21T10:04:50.176Z,23.2
2019-02-21T10:06:49.634Z,23.7
2019-02-21T10:08:49.820Z,24.0
2019-02-21T10:10:50.032Z,24.0
2019-02-21T10:12:50.205Z,23.9
2019-02-21T10:14:50.488Z,23.8
2019-02-21T10:16:49.881Z,23.8
2019-02-21T10:18:50.080Z,23.6
2019-02-21T10:20:50.200Z,24.4
2019-02-21T10:22:50.389Z,24.4
2019-02-21T10:24:50.486Z,24.0
2019-02-21T10:26:49.839Z,23.8
2019-02-21T10:28:50.032Z,23.5
2019-02-21T10:30:50.193Z,23.5
2019-02-21T10:32:50.353Z,22.7
2019-02-21T10:34:49.915Z,22.7
2019-02-21T10:36:50.123Z,22.5
2019-02-21T10:38:50.370Z,21.6
2019-02-21T10:40:49.567Z,21.6
2019-02-21T10:42:49.702Z,23.0
2019-02-21T10:44:50.017Z,22.3
2019-02-21T10:46:50.375Z,22.3
2019-02-21T10:48:49.712Z,22.2
2019-02-21T10:50:49.913Z,23.5
2019-02-21T10:52:50.069Z,23.3
2019-02-21T10:54:50.397Z,24.2
2019-02-21T10:56:49.662Z,23.0
2019-02-21T10:58:49.917Z,23.0
2019-02-21T11:00:50.097Z,23.3
2019-02-21T11:02:50.310Z,23.3
2019-02-21T11:04:55.207Z,22.8
2019-02-21T11:06:49.700Z,23.2
2019-02-21T11:08:50.006Z,23.2
2019-02-21T11:10:50.194Z,23.3
2019-02-21T11:12:50.327Z,23.5
2019-02-21T11:14:49.580Z,24.8
2019-02-21T11:16:49.914Z,22.6
2019-02-21T11:18:50.104Z,22.6
2019-02-21T11:20:50.303Z,22.3
2019-02-21T11:22:49.639Z,22.2
2019-02-21T11:24:49.848Z,21.9
2019-02-21T11:26:50.260Z,22.1
2019-02-21T11:28:49.578Z,22.1
2019-02-21T11:30:49.890Z,19.5
2019-02-21T11:32:50.105Z,19.4
2019-02-21T11:34:49.690Z,19.1
2019-02-21T11:36:50.021Z,18.7
2019-02-21T11:38:50.176Z,18.7
2019-02-21T11:40:50.495Z,19.6
2019-02-21T11:42:49.624Z,21.0
2019-02-21T11:44:49.823Z,19.6
2019-02-21T11:46:50.249Z,19.6
2019-02-21T11:48:50.497Z,19.2
2019-02-21T11:50:49.802Z,19.4
2019-02-21T11:52:50.054Z,19.4
2019-02-21T11:54:50.218Z,19.4
2019-02-21T11:56:49.697Z,20.7
2019-02-21T11:58:49.837Z,20.1
2019-02-21T12:00:50.092Z,20.6
2019-02-21T12:02:50.219Z,19.8
2019-02-21T12:04:49.823Z,20.3
2019-02-21T12:06:50.219Z,20.3
2019-02-21T12:08:50.370Z,20.2
2019-02-21T12:10:51.159Z,20.4
2019-02-21T12:12:50.379Z,20.3
2019-02-21T12:14:49.552Z,18.2
2019-02-21T12:16:49.968Z,18.2
2019-02-21T12:18:50.195Z,18.9
2019-02-21T12:20:50.526Z,17.4
2019-02-21T12:22:50.498Z,16.9
2019-02-21T12:24:50.506Z,16.9
2019-02-21T12:26:49.698Z,17.5
2019-02-21T12:28:49.724Z,17.2
2019-02-21T12:30:49.918Z,16.4
2019-02-21T12:32:49.982Z,15.8
2019-02-21T12:34:50.320Z,15.7
2019-02-21T12:36:50.449Z,15.7
2019-02-21T12:38:49.622Z,15.9
2019-02-21T12:40:49.994Z,16.3
2019-02-21T12:42:50.397Z,15.6
2019-02-21T12:44:49.535Z,15.6
2019-02-21T12:46:49.932Z,15.8
2019-02-21T12:48:50.114Z,14.5
2019-02-21T12:50:50.213Z,15.0
2019-02-21T12:52:50.512Z,16.7
2019-02-21T12:54:52.065Z,16.7
2019-02-21T12:56:50.129Z,16.0
2019-02-21T12:58:50.202Z,16.6
2019-02-21T13:00:50.221Z,16.6
2019-02-21T13:02:50.507Z,16.2
2019-02-21T13:04:50.115Z,16.2
2019-02-21T13:06:49.539Z,17.0
2019-02-21T13:08:49.742Z,16.6
2019-02-21T13:10:49.830Z,17.1
2019-02-21T13:12:49.882Z,17.1
2019-02-21T13:14:49.871Z,16.7
2019-02-21T13:16:49.976Z,17.1
2019-02-21T13:18:50.107Z,17.5
2019-02-21T13:20:50.226Z,17.5
2019-02-21T13:22:50.424Z,17.4
2019-02-21T13:24:50.506Z,17.8
2019-02-21T13:26:49.810Z,18.1
2019-02-21T13:28:50.012Z,18.6
2019-02-21T13:30:50.192Z,17.4
2019-02-21T13:32:50.491Z,17.4
2019-02-21T13:34:49.853Z,18.0
2019-02-21T13:36:50.021Z,18.2
2019-02-21T13:38:49.999Z,17.7
2019-02-21T13:40:50.004Z,17.0
2019-02-21T13:42:50.097Z,17.0
2019-02-21T13:44:50.058Z,16.5
2019-02-21T13:46:50.170Z,16.6
2019-02-21T13:48:50.193Z,15.8
2019-02-21T13:50:50.200Z,16.1
2019-02-21T13:52:50.275Z,16.1
2019-02-21T13:54:50.294Z,15.2
2019-02-21T13:56:50.348Z,16.0
2019-02-21T13:58:49.662Z,16.5
2019-02-21T14:00:49.756Z,19.9
2019-02-21T14:02:49.842Z,19.9
2019-02-21T14:04:50.368Z,15.3
2019-02-21T14:06:49.587Z,15.6
2019-02-21T14:08:49.598Z,16.3
2019-02-21T14:10:49.881Z,15.6
2019-02-21T14:12:50.121Z,15.6
2019-02-21T14:14:50.295Z,15.8
2019-02-21T14:16:49.679Z,15.2
2019-02-21T14:18:49.784Z,15.3
2019-02-21T14:20:50.088Z,14.6
2019-02-21T14:22:50.321Z,14.6
2019-02-21T14:24:49.684Z,14.2
2019-02-21T14:26:49.997Z,14.2
2019-02-21T14:28:50.211Z,13.8
2019-02-21T14:30:50.405Z,13.8
2019-02-21T14:32:49.797Z,13.5
2019-02-21T14:34:50.460Z,13.5
2019-02-21T14:36:49.839Z,13.5
2019-02-21T14:38:50.035Z,13.5
2019-02-21T14:40:50.320Z,13.5
2019-02-21T14:42:49.608Z,12.7
2019-02-21T14:44:49.840Z,13.8
2019-02-21T14:46:50.500Z,13.7
2019-02-21T14:48:50.524Z,13.4
2019-02-21T14:50:49.641Z,13.4
2019-02-21T14:52:50.317Z,13.6
2019-02-21T14:54:50.293Z,13.5
2019-02-21T14:56:49.629Z,13.9
2019-02-21T14:58:49.709Z,13.9
2019-02-21T15:00:49.741Z,14.4
2019-02-21T15:02:49.919Z,14.5
2019-02-21T15:04:49.924Z,14.0
2019-02-21T15:06:50.188Z,14.4
2019-02-21T15:08:50.362Z,14.3
2019-02-21T15:10:52.963Z,14.3
2019-02-21T15:12:49.996Z,14.8
2019-02-21T15:14:50.095Z,14.1
2019-02-21T15:16:50.298Z,14.9
2019-02-21T15:18:50.350Z,14.9
2019-02-21T15:20:50.451Z,15.0
2019-02-21T15:22:49.607Z,14.7
2019-02-21T15:24:49.696Z,16.2
2019-02-21T15:26:49.977Z,15.4
2019-02-21T15:28:49.992Z,15.4
2019-02-21T15:30:50.071Z,15.8
2019-02-21T15:32:50.107Z,15.4
2019-02-21T15:34:49.647Z,15.7
2019-02-21T15:36:50.024Z,15.7
2019-02-21T15:38:50.023Z,15.6
2019-02-21T15:40:50.100Z,15.1
2019-02-21T15:42:52.967Z,15.7
2019-02-21T15:44:50.161Z,15.7
2019-02-21T15:46:50.318Z,16.8
2019-02-21T15:48:50.270Z,15.9
2019-02-21T15:50:49.561Z,16.4
2019-02-21T15:52:49.655Z,16.7
2019-02-21T15:54:49.839Z,16.5
2019-02-21T15:56:49.953Z,16.5
2019-02-21T15:58:49.984Z,16.5
2019-02-21T16:00:50.119Z,16.5
2019-02-21T16:02:50.174Z,17.6
2019-02-21T16:04:49.771Z,16.3
2019-02-21T16:06:52.089Z,16.3
2019-02-21T16:08:50.119Z,17.0
2019-02-21T16:10:50.137Z,16.1
2019-02-21T16:12:51.647Z,17.9
2019-02-21T16:14:50.119Z,17.9
2019-02-21T16:16:50.371Z,17.0
2019-02-21T16:18:50.306Z,16.7
2019-02-21T16:20:53.162Z,17.0
2019-02-21T16:22:50.418Z,17.5
2019-02-21T16:24:50.463Z,17.5
2019-02-21T16:26:49.637Z,17.4
2019-02-21T16:28:49.643Z,17.8
2019-02-21T16:30:49.766Z,16.9
2019-02-21T16:32:49.774Z,18.0
2019-02-21T16:34:50.219Z,18.0
2019-02-21T16:36:50.331Z,18.9
2019-02-21T16:38:50.394Z,18.5
2019-02-21T16:40:50.430Z,17.6
2019-02-21T16:42:50.395Z,17.6
2019-02-21T16:44:50.505Z,17.8
2019-02-21T16:46:49.644Z,18.0
2019-02-21T16:48:49.652Z,18.3
2019-02-21T16:50:49.793Z,17.6
2019-02-21T16:52:49.905Z,17.6
2019-02-21T16:54:50.079Z,18.4
2019-02-21T16:56:50.246Z,18.4
2019-02-21T16:58:50.223Z,18.9
2019-02-21T17:00:56.792Z,18.8
2019-02-21T17:02:49.906Z,19.2
2019-02-21T17:04:50.297Z,19.2
2019-02-21T17:06:50.428Z,19.3
2019-02-21T17:08:49.528Z,19.3
2019-02-21T17:10:49.564Z,18.3
2019-02-21T17:12:49.722Z,19.5
2019-02-21T17:14:49.755Z,19.5
2019-02-21T17:16:49.944Z,19.4
2019-02-21T17:18:50.032Z,19.4
2019-02-21T17:20:50.124Z,19.7
2019-02-21T17:22:50.294Z,19.7
2019-02-21T17:24:52.270Z,19.3
2019-02-21T17:26:50.513Z,19.8
2019-02-21T17:28:49.545Z,19.2
2019-02-21T17:30:49.687Z,19.2
2019-02-21T17:32:49.757Z,19.2
2019-02-21T17:34:50.046Z,20.1
2019-02-21T17:36:50.219Z,20.0
2019-02-21T17:38:50.203Z,20.0
2019-02-21T17:40:50.311Z,19.4
2019-02-21T17:42:50.423Z,19.4
2019-02-21T17:44:50.377Z,19.4
2019-02-21T17:46:49.647Z,20.0
2019-02-21T17:48:49.729Z,19.9
2019-02-21T17:50:49.935Z,19.4
2019-02-21T17:52:50.045Z,19.4
2019-02-21T17:54:50.112Z,20.4
2019-02-21T17:56:50.359Z,20.2
2019-02-21T17:58:50.366Z,20.5
2019-02-21T18:00:50.423Z,20.5
2019-02-21T18:02:50.405Z,20.7
2019-02-21T18:04:49.780Z,20.6
2019-02-21T18:06:49.994Z,20.1
2019-02-21T18:08:50.006Z,20.1
2019-02-21T18:10:50.061Z,20.6
2019-02-21T18:12:50.159Z,20.6
2019-02-21T18:14:50.154Z,21.1
2019-02-21T18:16:50.344Z,20.5
2019-02-21T18:18:50.486Z,20.8
2019-02-21T18:20:49.560Z,20.8
2019-02-21T18:22:49.544Z,21.9
2019-02-21T18:24:49.691Z,21.2
2019-02-21T18:26:49.843Z,20.8
2019-02-21T18:28:49.893Z,20.7
2019-02-21T18:30:49.940Z,22.4
2019-02-21T18:32:49.983Z,22.4
2019-02-21T18:34:50.353Z,21.2
2019-02-21T18:36:49.532Z,22.0
2019-02-21T18:38:49.621Z,21.7
2019-02-21T18:40:49.665Z,21.7
2019-02-21T18:42:49.630Z,21.6
2019-02-21T18:44:49.725Z,22.4
2019-02-21T18:46:49.829Z,22.6
2019-02-21T18:48:49.911Z,22.7
2019-02-21T18:50:49.992Z,22.7
2019-02-21T18:52:49.951Z,23.3
2019-02-21T18:54:49.978Z,22.3
2019-02-21T18:56:50.190Z,23.2
2019-02-21T18:58:50.302Z,23.2
2019-02-21T19:00:50.284Z,23.2
2019-02-21T19:02:50.273Z,22.9
2019-02-21T19:04:49.675Z,23.3
2019-02-21T19:06:49.874Z,23.1
2019-02-21T19:08:49.954Z,24.2
2019-02-21T19:10:50.041Z,24.2
2019-02-21T19:12:50.050Z,24.0
2019-02-21T19:14:50.160Z,24.6
2019-02-21T19:16:50.371Z,24.7
2019-02-21T19:18:50.481Z,24.3
2019-02-21T19:20:50.617Z,24.3
2019-02-21T19:22:49.572Z,24.1
2019-02-21T19:24:49.657Z,24.7
2019-02-21T19:26:49.874Z,24.9
2019-02-21T19:28:49.893Z,24.9
2019-02-21T19:30:49.913Z,25.8
2019-02-21T19:32:49.994Z,25.1
2019-02-21T19:34:50.485Z,25.6
2019-02-21T19:36:49.621Z,25.6
2019-02-21T19:38:49.676Z,25.9
2019-02-21T19:40:49.677Z,26.4
2019-02-21T19:42:49.771Z,25.4
2019-02-21T19:44:49.868Z,25.8
2019-02-21T19:46:50.048Z,25.8
2019-02-21T19:48:50.101Z,26.9
2019-02-21T19:50:50.059Z,27.0
2019-02-21T19:52:50.150Z,26.9
2019-02-21T19:54:50.158Z,26.9
2019-02-21T19:56:50.376Z,27.0
2019-02-21T19:58:50.433Z,27.8
2019-02-21T20:00:49.560Z,27.2
2019-02-21T20:02:49.699Z,28.2
2019-02-21T20:04:50.200Z,27.4
2019-02-21T20:06:50.464Z,27.4
2019-02-21T20:08:50.485Z,28.0
2019-02-21T20:10:50.501Z,28.0
2019-02-21T20:12:49.585Z,28.3
2019-02-21T20:14:49.661Z,28.3
2019-02-21T20:16:49.997Z,28.8
2019-02-21T20:18:50.059Z,30.5
2019-02-21T20:20:50.110Z,29.3
2019-02-21T20:22:50.134Z,30.0
2019-02-21T20:24:50.136Z,30.0
2019-02-21T20:26:50.334Z,30.3
2019-02-21T20:28:50.379Z,29.7
2019-02-21T20:30:50.317Z,29.2
2019-02-21T20:32:50.367Z,29.2
2019-02-21T20:34:49.879Z,31.0
2019-02-21T20:36:51.586Z,31.0
2019-02-21T20:38:49.688Z,31.4
2019-02-21T20:40:49.706Z,31.4
2019-02-21T20:42:49.810Z,31.0
2019-02-21T20:44:49.975Z,31.0
2019-02-21T20:46:50.096Z,30.7
2019-02-21T20:48:50.135Z,31.6
2019-02-21T20:50:57.449Z,29.9
2019-02-21T20:52:49.573Z,31.8
2019-02-21T20:54:49.572Z,31.8
2019-02-21T20:56:49.787Z,30.8
2019-02-21T20:58:49.786Z,27.5
2019-02-21T21:00:49.807Z,27.5
2019-02-21T21:02:49.834Z,27.2
2019-02-21T21:04:50.266Z,25.6
2019-02-21T21:06:49.560Z,26.3
2019-02-21T21:08:49.653Z,26.3
2019-02-21T21:10:49.652Z,23.6
2019-02-21T21:12:49.715Z,24.8
2019-02-21T21:14:49.810Z,24.8
2019-02-21T21:16:50.082Z,23.9
2019-02-21T21:18:50.147Z,30.9
2019-02-21T21:20:50.160Z,25.2
2019-02-21T21:22:50.289Z,25.2
2019-02-21T21:24:50.316Z,24.4
2019-02-21T21:26:49.567Z,25.1
2019-02-21T21:28:49.555Z,25.1
2019-02-21T21:30:49.576Z,25.1
2019-02-21T21:32:49.699Z,25.1
2019-02-21T21:34:50.127Z,27.9
2019-02-21T21:36:50.394Z,26.3
2019-02-21T21:38:54.530Z,26.6
2019-02-21T21:40:49.588Z,27.8
2019-02-21T21:42:49.647Z,27.8
2019-02-21T21:44:49.821Z,28.6
2019-02-21T21:46:50.086Z,29.2
2019-02-21T21:48:50.173Z,30.2
2019-02-21T21:50:50.335Z,29.0
2019-02-21T21:52:50.401Z,29.0
2019-02-21T21:54:50.474Z,29.7
2019-02-21T21:56:49.729Z,30.5
2019-02-21T21:58:49.696Z,29.4
2019-02-21T22:00:49.886Z,29.4
2019-02-21T22:02:49.911Z,28.2
2019-02-21T22:04:50.360Z,28.2
2019-02-21T22:06:49.545Z,31.8
2019-02-21T22:08:49.659Z,28.5
2019-02-21T22:10:49.768Z,28.5
2019-02-21T22:12:49.856Z,28.9
2019-02-21T22:14:49.818Z,27.9
2019-02-21T22:16:49.962Z,27.9
2019-02-21T22:18:49.996Z,27.9
2019-02-21T22:20:50.020Z,27.9
2019-02-21T22:22:50.092Z,26.6
2019-02-21T22:24:50.114Z,27.0
2019-02-21T22:26:50.301Z,27.7
2019-02-21T22:28:50.323Z,26.6
2019-02-21T22:30:50.398Z,26.6
2019-02-21T22:32:50.394Z,27.5
2019-02-21T22:34:49.827Z,27.1
2019-02-21T22:36:49.965Z,27.3
2019-02-21T22:38:49.964Z,27.1
2019-02-21T22:40:49.963Z,27.1
2019-02-21T22:42:50.022Z,27.3
2019-02-21T22:44:50.121Z,27.3
2019-02-21T22:46:50.297Z,26.9
2019-02-21T22:48:50.387Z,28.0
2019-02-21T22:50:50.347Z,28.0
2019-02-21T22:52:50.383Z,28.0
2019-02-21T22:54:50.479Z,28.1
2019-02-21T22:56:49.834Z,28.4
2019-02-21T22:58:49.824Z,28.4
2019-02-21T23:00:49.850Z,28.9
2019-02-21T23:02:50.239Z,28.5
2019-02-21T23:04:49.700Z,28.8
2019-02-21T23:06:49.921Z,28.8
2019-02-21T23:08:50.013Z,29.8
2019-02-21T23:10:50.043Z,29.8
2019-02-21T23:12:50.140Z,29.5
2019-02-21T23:14:50.261Z,29.4
2019-02-21T23:16:49.515Z,28.5
2019-02-21T23:18:49.690Z,28.5
2019-02-21T23:20:49.699Z,29.9
2019-02-21T23:22:49.674Z,37.4
2019-02-21T23:24:49.829Z,29.2
2019-02-21T23:26:50.038Z,29.6
2019-02-21T23:28:50.053Z,29.6
2019-02-21T23:30:50.132Z,29.1
2019-02-21T23:32:50.114Z,29.0
2019-02-21T23:34:50.495Z,28.9
2019-02-21T23:36:49.623Z,29.2
2019-02-21T23:38:49.745Z,29.2
2019-02-21T23:40:49.796Z,28.6
2019-02-21T23:42:49.769Z,29.3
2019-02-21T23:44:49.768Z,29.3
2019-02-21T23:46:49.986Z,28.2
2019-02-21T23:48:50.044Z,28.2
2019-02-21T23:50:50.047Z,29.7
2019-02-21T23:52:50.214Z,28.9
2019-02-21T23:54:50.208Z,29.7
2019-02-21T23:56:50.513Z,30.2
2019-02-21T23:58:50.478Z,30.2
